createdAt,value
2018-10-01T00:00:09.948Z,100182.78
2018-10-01T00:02:41.385Z,100182.17
2018-10-01T00:05:10.092Z,100179.33
2018-10-01T00:10:27.100Z,100179.62
2018-10-01T00:13:14.452Z,100175.62
2018-10-01T00:16:01.471Z,100182.66
2018-10-01T00:18:33.094Z,100183.30
2018-10-01T00:24:26.844Z,100184.48
2018-10-01T00:27:14.122Z,100177.88
2018-10-01T00:30:01.511Z,100178.25
2018-10-01T00:32:48.761Z,100178.75
2018-10-01T00:35:26.159Z,100178.50
2018-10-01T00:38:13.218Z,100176.84
2018-10-01T00:40:44.806Z,100174.33
2018-10-01T00:43:32.242Z,100171.55
2018-10-01T00:46:00.915Z,100169.63
2018-10-01T00:48:48.112Z,100174.88
2018-10-01T00:51:36.153Z,100163.43
2018-10-01T00:57:30.698Z,100176.27
2018-10-01T01:00:17.811Z,100179.18
2018-10-01T01:03:05.194Z,100179.81
2018-10-01T01:05:49.077Z,100179.89
2018-10-01T01:08:36.469Z,100175.20
2018-10-01T01:11:34.892Z,100177.95
2018-10-01T01:14:03.549Z,100177.34
2018-10-01T01:16:50.518Z,100173.50
2018-10-01T01:19:37.597Z,100181.48
2018-10-01T01:22:28.144Z,100189.50
2018-10-01T01:25:12.228Z,100183.42
2018-10-01T01:28:00.198Z,100194.45
2018-10-01T01:30:47.498Z,100193.75
2018-10-01T01:33:34.758Z,100185.52
2018-10-01T01:36:15.154Z,100182.06
2018-10-01T01:39:02.468Z,100178.73
2018-10-01T01:45:12.017Z,100179.37
2018-10-01T01:47:59.372Z,100172.21
2018-10-01T01:50:46.755Z,100171.63
2018-10-01T01:53:34.187Z,100167.55
2018-10-01T01:56:21.686Z,100164.36
2018-10-01T01:59:05.363Z,100170.28
2018-10-01T02:01:42.632Z,100163.56
2018-10-01T02:04:12.359Z,100168.63
2018-10-01T02:06:41.077Z,100163.19
2018-10-01T02:09:29.327Z,100154.88
2018-10-01T02:12:17.179Z,100157.30
2018-10-01T02:15:04.646Z,100155.37
2018-10-01T02:18:07.395Z,100162.05
2018-10-01T02:20:55.612Z,100164.41
2018-10-01T02:23:42.998Z,100157.66
2018-10-01T02:26:30.188Z,100157.91
2018-10-01T02:28:59.076Z,100153.79
2018-10-01T02:34:33.937Z,100156.23
2018-10-01T02:40:39.627Z,100153.21
2018-10-01T02:43:29.615Z,100159.66
2018-10-01T02:46:25.092Z,100158.30
2018-10-01T02:48:53.716Z,100157.86
2018-10-01T02:51:40.876Z,100154.70
2018-10-01T02:54:30.448Z,100156.61
2018-10-01T02:57:17.770Z,100159.02
2018-10-01T03:00:06.050Z,100160.04
2018-10-01T03:02:53.053Z,100158.08
2018-10-01T03:05:29.173Z,100155.53
2018-10-01T03:11:23.008Z,100153.72
2018-10-01T03:13:51.598Z,100161.56
2018-10-01T03:16:38.755Z,100154.70
2018-10-01T03:19:10.213Z,100147.38
2018-10-01T03:21:57.461Z,100144.02
2018-10-01T03:24:46.936Z,100147.14
2018-10-01T03:27:34.346Z,100144.16
2018-10-01T03:30:21.708Z,100144.73
2018-10-01T03:32:50.341Z,100135.98
2018-10-01T03:35:37.754Z,100141.30
2018-10-01T03:38:25.226Z,100135.02
2018-10-01T03:41:12.812Z,100141.55
2018-10-01T03:43:42.278Z,100146.98
2018-10-01T03:46:32.720Z,100139.83
2018-10-01T03:49:20.074Z,100134.77
2018-10-01T04:01:07.828Z,100124.59
2018-10-01T04:15:50.951Z,100139.86
2018-10-01T04:18:34.886Z,100139.11
2018-10-01T04:24:28.136Z,100153.45
2018-10-01T04:27:15.561Z,100149.78
2018-10-01T04:45:19.569Z,100163.08
2018-10-01T04:48:07.031Z,100170.50
2018-10-01T04:51:01.888Z,100167.80
2018-10-01T04:56:37.700Z,100170.16
2018-10-01T04:59:24.861Z,100176.16
2018-10-01T05:02:12.348Z,100179.47
2018-10-01T05:04:59.775Z,100176.13
2018-10-01T05:07:28.462Z,100178.54
2018-10-01T05:10:17.322Z,100175.78
2018-10-01T05:12:56.823Z,100181.87
2018-10-01T05:15:44.872Z,100180.82
2018-10-01T05:18:33.696Z,100193.33
2018-10-01T05:21:22.396Z,100190.19
2018-10-01T05:24:12.020Z,100185.70
2018-10-01T05:30:06.666Z,100180.86
2018-10-01T05:32:55.841Z,100185.38
2018-10-01T05:38:50.279Z,100184.40
2018-10-01T05:41:37.498Z,100188.63
2018-10-01T05:47:32.191Z,100185.65
2018-10-01T05:50:19.750Z,100189.57
2018-10-01T05:53:07.159Z,100196.47
2018-10-01T05:59:00.660Z,100186.48
2018-10-01T06:01:48.097Z,100189.30
2018-10-01T06:04:35.757Z,100199.98
2018-10-01T06:07:22.896Z,100194.22
2018-10-01T06:10:10.192Z,100193.45
2018-10-01T06:12:57.493Z,100194.77
2018-10-01T06:15:52.967Z,100199.91
2018-10-01T06:18:39.942Z,100202.08
2018-10-01T06:21:27.010Z,100202.46
2018-10-01T06:24:14.398Z,100210.25
2018-10-01T06:27:01.612Z,100212.30
2018-10-01T06:29:48.971Z,100216.28
2018-10-01T06:32:36.330Z,100203.88
2018-10-01T06:35:23.879Z,100207.64
2018-10-01T06:38:11.464Z,100218.08
2018-10-01T06:47:11.922Z,100216.77
2018-10-01T06:49:59.919Z,100222.02
2018-10-01T06:55:54.859Z,100224.58
2018-10-01T06:58:42.287Z,100231.27
2018-10-01T07:01:29.669Z,100229.44
2018-10-01T07:07:24.999Z,100231.34
2018-10-01T07:10:10.542Z,100237.02
2018-10-01T07:12:58.129Z,100236.89
2018-10-01T07:15:45.369Z,100240.72
2018-10-01T07:21:40.142Z,100253.12
2018-10-01T07:24:35.714Z,100249.23
2018-10-01T07:27:23.040Z,100262.38
2018-10-01T07:36:24.100Z,100269.34
2018-10-01T07:39:11.712Z,100274.44
2018-10-01T07:41:58.891Z,100274.11
2018-10-01T07:44:46.276Z,100274.70
2018-10-01T07:47:33.654Z,100285.61
2018-10-01T07:50:20.744Z,100284.76
2018-10-01T07:53:08.696Z,100280.09
2018-10-01T07:55:56.315Z,100281.77
2018-10-01T07:58:44.034Z,100276.42
2018-10-01T08:04:41.393Z,100288.84
2018-10-01T08:07:29.402Z,100287.91
2018-10-01T08:10:16.789Z,100294.48
2018-10-01T08:13:05.270Z,100295.95
2018-10-01T08:15:52.161Z,100297.80
2018-10-01T08:18:39.576Z,100304.52
2018-10-01T08:24:33.136Z,100308.61
2018-10-01T08:27:20.663Z,100311.27
2018-10-01T08:30:07.983Z,100318.63
2018-10-01T08:32:55.349Z,100311.41
2018-10-01T08:35:42.781Z,100309.45
2018-10-01T08:41:40.520Z,100314.55
2018-10-01T08:44:27.876Z,100316.36
2018-10-01T08:50:21.807Z,100323.50
2018-10-01T08:53:09.064Z,100323.38
2018-10-01T08:55:56.631Z,100322.05
2018-10-01T08:58:44.154Z,100325.08
2018-10-01T09:01:31.472Z,100329.62
2018-10-01T09:04:18.587Z,100327.73
2018-10-01T09:07:06.110Z,100326.28
2018-10-01T09:09:53.430Z,100337.30
2018-10-01T09:12:40.959Z,100330.33
2018-10-01T09:15:28.380Z,100334.65
2018-10-01T09:18:15.760Z,100331.36
2018-10-01T09:21:03.139Z,100328.20
2018-10-01T09:23:50.576Z,100335.58
2018-10-01T09:26:38.044Z,100338.08
2018-10-01T09:29:25.506Z,100334.09
2018-10-01T09:32:13.063Z,100338.63
2018-10-01T09:35:00.544Z,100333.80
2018-10-01T09:37:49.013Z,100328.95
2018-10-01T09:40:36.902Z,100330.66
2018-10-01T09:43:25.850Z,100333.77
2018-10-01T09:46:13.456Z,100329.67
2018-10-01T09:49:00.872Z,100331.29
2018-10-01T09:51:48.335Z,100329.77
2018-10-01T09:54:35.983Z,100332.16
2018-10-01T09:57:23.487Z,100333.83
2018-10-01T10:00:11.587Z,100324.86
2018-10-01T10:02:58.942Z,100329.78
2018-10-01T10:05:46.734Z,100325.14
2018-10-01T10:08:34.101Z,100332.37
2018-10-01T10:11:21.733Z,100334.98
2018-10-01T10:14:09.940Z,100339.91
2018-10-01T10:17:00.443Z,100340.10
2018-10-01T10:22:53.350Z,100349.33
2018-10-01T10:25:40.524Z,100351.47
2018-10-01T10:28:27.962Z,100354.62
2018-10-01T10:31:17.206Z,100356.67
2018-10-01T10:34:04.830Z,100361.46
2018-10-01T10:36:52.302Z,100362.22
2018-10-01T10:39:47.392Z,100361.19
2018-10-01T10:42:35.730Z,100361.20
2018-10-01T10:45:22.951Z,100364.39
2018-10-01T10:48:11.822Z,100368.20
2018-10-01T10:50:59.581Z,100362.26
2018-10-01T10:53:47.106Z,100359.37
2018-10-01T10:59:30.084Z,100366.84
2018-10-01T11:02:18.087Z,100363.81
2018-10-01T11:04:46.736Z,100371.53
2018-10-01T11:07:34.464Z,100371.02
2018-10-01T11:10:21.846Z,100375.41
2018-10-01T11:13:09.030Z,100373.34
2018-10-01T11:15:37.637Z,100376.34
2018-10-01T11:18:24.890Z,100373.02
2018-10-01T11:21:13.065Z,100373.97
2018-10-01T11:24:01.235Z,100370.98
2018-10-01T11:26:48.704Z,100370.03
2018-10-01T11:29:36.505Z,100369.80
2018-10-01T11:32:08.086Z,100366.38
2018-10-01T11:34:49.416Z,100369.16
2018-10-01T11:37:36.510Z,100373.08
2018-10-01T11:40:11.001Z,100372.66
2018-10-01T11:42:59.703Z,100379.19
2018-10-01T11:45:37.200Z,100374.00
2018-10-01T11:48:24.429Z,100378.92
2018-10-01T11:51:14.584Z,100373.40
2018-10-01T11:54:01.898Z,100367.56
2018-10-01T11:56:51.451Z,100371.58
2018-10-01T11:59:43.807Z,100370.35
2018-10-01T12:02:35.272Z,100369.65
2018-10-01T12:05:07.684Z,100366.39
2018-10-01T12:07:55.451Z,100364.32
2018-10-01T12:10:26.139Z,100364.58
2018-10-01T12:13:13.958Z,100369.22
2018-10-01T12:15:43.458Z,100372.16
2018-10-01T12:24:44.271Z,100379.52
2018-10-01T12:27:13.803Z,100375.28
2018-10-01T12:30:01.202Z,100366.95
2018-10-01T12:35:56.212Z,100366.95
2018-10-01T12:38:43.309Z,100368.50
2018-10-01T12:41:32.203Z,100369.20
2018-10-01T12:44:19.562Z,100362.52
2018-10-01T12:46:58.637Z,100356.30
2018-10-01T12:49:51.052Z,100362.85
2018-10-01T12:52:20.668Z,100360.77
2018-10-01T12:55:09.551Z,100363.62
2018-10-01T12:57:56.778Z,100367.61
2018-10-01T13:00:44.222Z,100369.60
2018-10-01T13:03:32.147Z,100370.41
2018-10-01T13:06:20.699Z,100377.23
2018-10-01T13:09:08.102Z,100379.08
2018-10-01T13:11:56.367Z,100366.19
2018-10-01T13:14:43.976Z,100369.65
2018-10-01T13:17:32.175Z,100371.28
2018-10-01T13:20:19.621Z,100374.47
2018-10-01T13:23:09.651Z,100381.20
2018-10-01T13:25:41.212Z,100374.75
2018-10-01T13:28:29.535Z,100381.38
2018-10-01T13:31:08.975Z,100369.44
2018-10-01T13:33:56.499Z,100381.95
2018-10-01T13:39:45.786Z,100372.92
2018-10-01T13:42:15.563Z,100373.44
2018-10-01T13:45:10.903Z,100372.05
2018-10-01T13:54:06.254Z,100371.59
2018-10-01T13:56:51.443Z,100364.89
2018-10-01T13:59:38.760Z,100372.45
2018-10-01T14:02:26.250Z,100372.30
2018-10-01T14:05:14.244Z,100367.86
2018-10-01T14:08:01.958Z,100357.67
2018-10-01T14:10:49.550Z,100363.88
2018-10-01T14:13:36.988Z,100368.12
2018-10-01T14:16:08.417Z,100369.41
2018-10-01T14:18:56.117Z,100363.72
2018-10-01T14:21:26.075Z,100364.44
2018-10-01T14:24:14.619Z,100360.78
2018-10-01T14:27:03.070Z,100360.12
2018-10-01T14:29:50.328Z,100360.79
2018-10-01T14:38:41.099Z,100359.27
2018-10-01T14:41:25.658Z,100369.03
2018-10-01T14:44:13.648Z,100371.52
2018-10-01T14:46:44.594Z,100376.72
2018-10-01T14:49:24.614Z,100379.20
2018-10-01T14:52:12.305Z,100384.26
2018-10-01T14:55:01.224Z,100376.63
2018-10-01T14:57:49.064Z,100378.06
2018-10-01T15:00:36.725Z,100381.47
2018-10-01T15:03:23.927Z,100387.39
2018-10-01T15:06:11.082Z,100398.89
2018-10-01T15:08:59.235Z,100396.95
2018-10-01T15:11:34.779Z,100396.41
2018-10-01T15:14:22.202Z,100401.20
2018-10-01T15:19:58.876Z,100405.86
2018-10-01T15:22:46.424Z,100409.37
2018-10-01T15:25:34.181Z,100405.97
2018-10-01T15:28:27.248Z,100397.75
2018-10-01T15:31:16.022Z,100396.10
2018-10-01T15:36:54.719Z,100403.67
2018-10-01T15:39:42.948Z,100401.81
2018-10-01T15:42:12.152Z,100405.09
2018-10-01T15:44:59.752Z,100409.23
2018-10-01T15:50:56.808Z,100445.81
2018-10-01T15:53:44.413Z,100450.03
2018-10-01T15:56:31.805Z,100453.10
2018-10-01T15:59:19.253Z,100448.52
2018-10-01T16:02:07.386Z,100450.28
2018-10-01T16:04:57.807Z,100473.23
2018-10-01T16:07:45.839Z,100484.23
2018-10-01T16:10:38.171Z,100488.92
2018-10-01T16:13:26.259Z,100480.02
2018-10-01T16:16:13.467Z,100485.42
2018-10-01T16:19:01.052Z,100491.16
2018-10-01T16:21:48.788Z,100497.98
2018-10-01T16:24:36.809Z,100500.30
2018-10-01T16:27:35.639Z,100500.30
2018-10-01T16:36:39.406Z,100501.95
2018-10-01T16:42:33.206Z,100519.11
2018-10-01T16:48:27.107Z,100522.07
2018-10-01T16:51:15.256Z,100533.75
2018-10-01T16:54:02.782Z,100533.55
2018-10-01T16:56:51.285Z,100537.89
2018-10-01T16:59:38.855Z,100542.13
2018-10-01T17:02:26.258Z,100541.13
2018-10-01T17:14:33.754Z,100558.23
2018-10-01T17:17:20.988Z,100556.16
2018-10-01T17:20:08.432Z,100563.17
2018-10-01T17:26:06.100Z,100574.71
2018-10-01T17:28:53.413Z,100575.67
2018-10-01T17:31:42.332Z,100580.63
2018-10-01T17:34:30.891Z,100584.05
2018-10-01T17:37:18.545Z,100591.73
2018-10-01T17:40:06.942Z,100595.73
2018-10-01T17:42:54.819Z,100601.48
2018-10-01T17:45:42.565Z,100608.23
2018-10-01T17:54:43.435Z,100621.91
2018-10-01T17:57:31.206Z,100627.29
2018-10-01T18:00:18.986Z,100631.11
2018-10-01T18:12:24.522Z,100642.43
2018-10-01T18:15:11.948Z,100650.11
2018-10-01T18:17:59.533Z,100653.90
2018-10-01T18:20:47.427Z,100650.14
2018-10-01T18:23:35.484Z,100641.05
2018-10-01T18:26:23.131Z,100654.88
2018-10-01T18:29:11.213Z,100662.55
2018-10-01T18:32:00.356Z,100664.34
2018-10-01T18:34:48.236Z,100661.66
2018-10-01T18:37:36.686Z,100672.36
2018-10-01T18:40:25.511Z,100676.75
2018-10-01T18:43:13.625Z,100678.08
2018-10-01T18:46:01.014Z,100679.83
2018-10-01T18:48:49.039Z,100678.75
2018-10-01T18:54:42.666Z,100676.46
2018-10-01T18:57:29.811Z,100683.41
2018-10-01T19:00:16.870Z,100681.78
2018-10-01T19:03:03.774Z,100686.34
2018-10-01T19:05:51.326Z,100687.70
2018-10-01T19:08:38.658Z,100688.70
2018-10-01T19:11:26.144Z,100689.98
2018-10-01T19:14:13.733Z,100694.50
2018-10-01T19:17:01.645Z,100694.86
2018-10-01T19:19:49.626Z,100702.94
2018-10-01T19:22:37.142Z,100705.95
2018-10-01T19:25:25.104Z,100706.78
2018-10-01T19:28:12.792Z,100708.78
2018-10-01T19:31:00.323Z,100719.90
2018-10-01T19:33:48.436Z,100720.92
2018-10-01T19:42:50.280Z,100725.08
2018-10-01T19:45:38.183Z,100721.66
2018-10-01T19:48:25.670Z,100727.30
2018-10-01T19:51:13.286Z,100719.52
2018-10-01T19:54:13.483Z,100727.91
2018-10-01T19:57:03.416Z,100736.54
2018-10-01T19:59:51.083Z,100736.31
2018-10-01T20:02:39.904Z,100734.98
2018-10-01T20:05:27.319Z,100738.02
2018-10-01T20:11:22.433Z,100743.30
2018-10-01T20:14:09.849Z,100743.60
2018-10-01T20:16:57.645Z,100743.52
2018-10-01T20:20:00.321Z,100746.80
2018-10-01T20:22:48.162Z,100746.19
2018-10-01T20:25:35.881Z,100743.96
2018-10-01T20:28:23.890Z,100748.61
2018-10-01T20:31:11.144Z,100747.56
2018-10-01T20:33:59.408Z,100744.88
2018-10-01T20:36:46.988Z,100748.41
2018-10-01T20:39:34.768Z,100754.58
2018-10-01T20:42:22.622Z,100752.44
2018-10-01T20:45:19.379Z,100753.45
2018-10-01T20:48:08.400Z,100756.59
2018-10-01T20:50:56.675Z,100755.06
2018-10-01T20:53:47.763Z,100758.77
2018-10-01T20:56:36.277Z,100771.71
2018-10-01T20:59:24.466Z,100766.61
2018-10-01T21:02:11.865Z,100768.07
2018-10-01T21:05:01.439Z,100772.49
2018-10-01T21:07:49.290Z,100773.48
2018-10-01T21:10:38.023Z,100772.30
2018-10-01T21:13:33.274Z,100777.19
2018-10-01T21:16:34.201Z,100787.38
2018-10-01T21:19:27.361Z,100788.45
2018-10-01T21:22:22.328Z,100799.13
2018-10-01T21:25:10.224Z,100792.74
2018-10-01T21:27:58.868Z,100788.52
2018-10-01T21:30:48.842Z,100795.20
2018-10-01T21:33:39.205Z,100798.91
2018-10-01T21:36:27.314Z,100798.06
2018-10-01T21:42:21.977Z,100797.41
2018-10-01T21:45:09.659Z,100795.84
2018-10-01T21:51:07.599Z,100801.21
2018-10-01T21:53:56.719Z,100810.23
2018-10-01T21:56:48.953Z,100810.82
2018-10-01T21:59:36.751Z,100816.31
2018-10-01T22:02:41.032Z,100819.95
2018-10-01T22:05:31.968Z,100827.06
2018-10-01T22:08:21.565Z,100828.45
2018-10-01T22:11:08.834Z,100824.49
2018-10-01T22:13:56.613Z,100824.06
2018-10-01T22:16:47.868Z,100832.95
2018-10-01T22:19:35.340Z,100839.20
2018-10-01T22:22:22.814Z,100838.00
2018-10-01T22:25:17.620Z,100835.92
2018-10-01T22:28:11.832Z,100836.41
2018-10-01T22:31:02.161Z,100840.52
2018-10-01T22:33:49.609Z,100838.45
2018-10-01T22:39:49.004Z,100840.73
2018-10-01T22:42:37.653Z,100846.70
2018-10-01T22:45:32.124Z,100846.94
2018-10-01T22:48:31.133Z,100844.44
2018-10-01T22:54:36.477Z,100842.64
2018-10-01T22:57:32.713Z,100842.05
2018-10-01T23:00:20.465Z,100839.58
2018-10-01T23:03:09.586Z,100844.55
2018-10-01T23:05:57.365Z,100840.52
2018-10-01T23:08:46.579Z,100844.06
2018-10-01T23:27:19.885Z,100856.30
2018-10-01T23:30:08.053Z,100856.61
2018-10-01T23:39:09.309Z,100861.86
2018-10-01T23:51:23.642Z,100867.70
2018-10-01T23:54:16.334Z,100867.02
